Time;durP1;ratioP1;P1;durP2;ratioP2;P2;SDS_P1;SDS_P2;PMS_P1;PMS_P2;Temp;Humidity;BMP_temperature;BMP_pressure;BME280_temperature;BME280_humidity;BME280_pressure;Samples;Min_cycle;Max_cycle;Signal;HPM_P1;HPM_P2
2023/03/14 06:00:43;;;;;;;1.40;0.80;;;10.10;97.20;;;;;;1708017;28;20205;-65
2023/03/14 06:01:34;;;;;;;3.35;1.05;;;10.10;97.20;;;;;;1709516;28;20228;-66
2023/03/14 06:02:26;;;;;;;2.33;1.05;;;10.10;97.20;;;;;;1708942;28;20222;-65
2023/03/14 06:03:17;;;;;;;1.92;0.90;;;10.00;97.20;;;;;;1709939;28;20218;-65
2023/03/14 06:04:09;;;;;;;3.30;0.90;;;10.00;97.20;;;;;;1715037;28;20216;-67
2023/03/14 06:05:00;;;;;;;1.42;1.00;;;10.00;97.20;;;;;;1714763;28;20226;-68
2023/03/14 06:05:51;;;;;;;2.93;1.00;;;10.10;97.20;;;;;;1714998;28;20281;-66
2023/03/14 06:06:42;;;;;;;3.90;0.90;;;10.10;97.20;;;;;;1714997;28;20201;-67
2023/03/14 06:07:34;;;;;;;2.37;0.90;;;10.10;97.20;;;;;;1711003;28;20198;-66
2023/03/14 06:08:25;;;;;;;5.00;0.90;;;10.10;97.20;;;;;;1709344;28;20218;-66
2023/03/14 06:09:19;;;;;;;2.20;0.90;;;10.10;97.20;;;;;;1708184;28;20203;-66
2023/03/14 06:10:10;;;;;;;1.70;0.80;;;10.10;97.20;;;;;;1711627;28;20201;-68
2023/03/14 06:11:04;;;;;;;2.15;1.30;;;10.10;97.20;;;;;;1708468;28;20225;-66
2023/03/14 06:11:55;;;;;;;4.15;0.82;;;10.10;97.20;;;;;;1710883;28;20217;-66
2023/03/14 06:12:46;;;;;;;5.43;1.50;;;10.10;97.20;;;;;;1714473;28;20212;-66
2023/03/14 06:13:37;;;;;;;1.65;0.80;;;10.20;97.20;;;;;;1714891;28;20206;-66
2023/03/14 06:14:29;;;;;;;1.00;0.70;;;10.20;97.20;;;;;;1714979;28;20202;-65
2023/03/14 06:15:20;;;;;;;2.50;0.85;;;10.20;97.20;;;;;;1714957;28;20206;-66
2023/03/14 06:16:14;;;;;;;4.50;1.08;;;10.20;97.20;;;;;;1710465;28;20198;-65
2023/03/14 06:17:04;;;;;;;3.17;1.00;;;10.20;97.20;;;;;;1708288;28;20210;-66
2023/03/14 06:17:56;;;;;;;1.93;0.80;;;10.20;97.20;;;;;;1708304;28;20317;-66
2023/03/14 06:18:48;;;;;;;2.70;0.90;;;10.30;97.20;;;;;;1708123;28;20217;-66
2023/03/14 06:19:40;;;;;;;3.50;1.25;;;10.30;97.20;;;;;;1708239;28;20194;-66
2023/03/14 06:20:32;;;;;;;3.15;1.10;;;10.30;97.20;;;;;;1707235;28;20747;-66
2023/03/14 06:21:24;;;;;;;3.53;1.92;;;10.30;97.20;;;;;;1708367;28;20205;-65
2023/03/14 06:22:15;;;;;;;2.30;0.98;;;10.30;97.20;;;;;;1708418;28;20213;-65
2023/03/14 06:23:07;;;;;;;3.30;1.40;;;10.30;97.20;;;;;;1707650;28;20213;-66
2023/03/14 06:23:58;;;;;;;2.67;1.10;;;10.30;97.20;;;;;;1708365;28;20453;-65
2023/03/14 06:24:49;;;;;;;1.80;1.13;;;10.30;97.20;;;;;;1708061;28;20227;-68
2023/03/14 06:25:40;;;;;;;2.47;1.00;;;10.40;97.20;;;;;;1708303;28;20207;-66
2023/03/14 06:26:32;;;;;;;1.30;0.90;;;10.40;97.20;;;;;;1708213;28;20205;-65
2023/03/14 06:27:23;;;;;;;2.40;0.90;;;10.40;97.20;;;;;;1708343;28;20203;-66
2023/03/14 06:28:15;;;;;;;2.37;1.07;;;10.40;97.20;;;;;;1711602;28;20194;-66
2023/03/14 06:29:05;;;;;;;3.70;1.20;;;10.40;97.20;;;;;;1714636;28;20237;-65
2023/03/14 06:29:57;;;;;;;2.33;1.00;;;10.40;97.20;;;;;;1715009;28;20206;-65
2023/03/14 06:30:48;;;;;;;3.15;1.00;;;10.40;97.20;;;;;;1714767;28;20233;-65
2023/03/14 06:31:41;;;;;;;1.93;0.83;;;10.40;97.20;;;;;;1715043;28;20206;-67
2023/03/14 06:32:32;;;;;;;3.60;1.02;;;10.40;97.20;;;;;;1712035;28;20241;-65
2023/03/14 06:33:23;;;;;;;3.67;1.07;;;10.40;97.20;;;;;;1707800;28;20203;-65
2023/03/14 06:34:14;;;;;;;1.48;0.90;;;10.40;97.20;;;;;;1708511;28;20652;-65
2023/03/14 06:35:06;;;;;;;2.40;1.37;;;10.40;97.20;;;;;;1713076;28;20574;-68
2023/03/14 06:35:58;;;;;;;1.75;1.20;;;10.40;97.20;;;;;;1712990;28;20662;-66
2023/03/14 06:36:49;;;;;;;3.45;1.50;;;10.40;97.20;;;;;;1713550;28;20197;-65
2023/03/14 06:37:41;;;;;;;1.45;1.00;;;10.40;97.20;;;;;;1710814;28;20199;-66
2023/03/14 06:38:32;;;;;;;2.85;0.80;;;10.40;97.20;;;;;;1711204;28;20214;-65
2023/03/14 06:39:23;;;;;;;2.03;1.00;;;10.40;97.20;;;;;;1714209;28;20217;-66
2023/03/14 06:40:17;;;;;;;2.40;1.07;;;10.40;97.20;;;;;;1714455;28;20202;-66
2023/03/14 06:41:08;;;;;;;1.13;0.90;;;10.40;97.20;;;;;;1714677;28;20672;-66
2023/03/14 06:42:00;;;;;;;1.63;0.93;;;10.40;97.20;;;;;;1714851;28;20683;-66
2023/03/14 06:42:50;;;;;;;1.95;0.85;;;10.40;97.20;;;;;;1709600;28;20595;-66
2023/03/14 06:43:42;;;;;;;2.10;0.80;;;10.40;97.20;;;;;;1714183;28;20194;-67
2023/03/14 06:44:33;;;;;;;0.95;0.70;;;10.40;97.20;;;;;;1710527;28;20473;-67
2023/03/14 06:45:25;;;;;;;2.53;0.80;;;10.40;97.20;;;;;;1707912;29;20233;-66
2023/03/14 06:46:16;;;;;;;3.13;1.00;;;10.40;97.20;;;;;;1710058;28;20501;-66
2023/03/14 06:47:09;;;;;;;1.48;0.90;;;10.50;97.20;;;;;;1711893;28;20198;-66
2023/03/14 06:48:00;;;;;;;2.70;1.27;;;10.50;97.20;;;;;;1713504;28;20237;-66
2023/03/14 06:48:51;;;;;;;2.00;1.37;;;10.60;97.20;;;;;;1713866;28;20280;-66
2023/03/14 06:49:42;;;;;;;2.05;0.90;;;10.60;97.20;;;;;;1712184;28;20202;-66
2023/03/14 06:50:34;;;;;;;2.77;0.93;;;10.60;97.20;;;;;;1714300;28;20229;-66
2023/03/14 06:51:25;;;;;;;1.75;0.60;;;10.70;97.20;;;;;;1714580;28;20213;-66
2023/03/14 06:52:17;;;;;;;3.83;0.90;;;10.70;97.20;;;;;;1710142;28;20232;-66
2023/03/14 06:53:07;;;;;;;1.73;0.75;;;10.80;97.20;;;;;;1704852;28;20499;-71
2023/03/14 06:53:59;;;;;;;2.70;0.80;;;10.80;97.20;;;;;;1709341;28;20198;-67
2023/03/14 06:54:51;;;;;;;1.55;0.85;;;10.90;97.20;;;;;;1710428;28;20194;-67
2023/03/14 06:55:43;;;;;;;3.88;1.13;;;11.00;97.20;;;;;;1712215;28;20198;-69
2023/03/14 06:56:34;;;;;;;2.03;0.93;;;11.00;97.20;;;;;;1706771;28;20202;-67
2023/03/14 06:57:26;;;;;;;2.45;1.00;;;11.10;97.20;;;;;;1706141;29;20770;-68
2023/03/14 06:58:18;;;;;;;1.05;0.70;;;11.20;97.20;;;;;;1706287;28;20198;-66
2023/03/14 06:59:10;;;;;;;2.17;1.02;;;11.20;97.20;;;;;;1706704;28;20198;-67
2023/03/14 07:00:01;;;;;;;2.72;0.70;;;11.30;97.20;;;;;;1708271;28;20209;-67
2023/03/14 07:00:58;;;;;;;1.88;0.80;;;11.30;97.20;;;;;;1714285;28;20284;-68
2023/03/14 07:01:50;;;;;;;2.10;0.80;;;11.30;97.20;;;;;;1714251;28;20206;-67
2023/03/14 07:02:43;;;;;;;1.05;0.60;;;11.30;97.20;;;;;;1707961;28;20653;-65
2023/03/14 07:03:34;;;;;;;1.63;0.70;;;11.30;97.20;;;;;;1713133;28;21393;-67
2023/03/14 07:04:26;;;;;;;2.10;0.80;;;11.40;97.20;;;;;;1713700;28;20209;-66
2023/03/14 07:05:17;;;;;;;2.15;0.90;;;11.40;97.20;;;;;;1714046;28;20484;-66
2023/03/14 07:06:09;;;;;;;3.05;0.73;;;11.40;97.20;;;;;;1714354;28;20216;-67
2023/03/14 07:07:00;;;;;;;1.00;0.75;;;11.40;97.20;;;;;;1714292;28;20212;-67
2023/03/14 07:07:51;;;;;;;1.90;0.80;;;11.40;97.20;;;;;;1714021;28;20206;-66
2023/03/14 07:08:42;;;;;;;2.28;0.93;;;11.50;97.20;;;;;;1714031;28;20214;-67
2023/03/14 07:09:35;;;;;;;1.87;0.90;;;11.50;97.20;;;;;;1714367;28;20212;-67
2023/03/14 07:10:25;;;;;;;2.30;0.80;;;11.50;97.20;;;;;;1714220;28;20212;-67
2023/03/14 07:11:17;;;;;;;1.30;0.80;;;11.50;97.20;;;;;;1714394;28;20212;-67
2023/03/14 07:12:08;;;;;;;1.92;0.90;;;11.50;97.20;;;;;;1714248;28;20209;-69
2023/03/14 07:12:59;;;;;;;1.73;0.90;;;11.60;97.20;;;;;;1711764;28;20209;-67
2023/03/14 07:13:50;;;;;;;1.50;0.70;;;11.60;97.20;;;;;;1714335;28;20226;-66
2023/03/14 07:14:42;;;;;;;2.87;0.70;;;11.60;97.20;;;;;;1714188;28;20671;-66
2023/03/14 07:15:33;;;;;;;2.45;0.75;;;11.70;97.20;;;;;;1714346;28;20206;-66
2023/03/14 07:16:28;;;;;;;3.00;1.00;;;11.70;97.20;;;;;;1714316;28;20280;-66
2023/03/14 07:17:20;;;;;;;1.45;0.90;;;11.80;97.20;;;;;;1714279;28;20731;-66
2023/03/14 07:18:12;;;;;;;1.38;0.70;;;11.80;97.20;;;;;;1712551;28;20213;-67
2023/03/14 07:19:04;;;;;;;0.80;0.70;;;11.90;97.20;;;;;;1707242;28;20692;-66
2023/03/14 07:19:54;;;;;;;1.80;0.90;;;11.90;97.20;;;;;;1709983;28;20687;-67
2023/03/14 07:20:46;;;;;;;2.13;0.90;;;12.00;97.20;;;;;;1711443;28;20251;-66
2023/03/14 07:21:37;;;;;;;1.55;0.70;;;12.00;97.20;;;;;;1707455;28;20217;-66
2023/03/14 07:22:29;;;;;;;2.00;0.70;;;12.00;97.20;;;;;;1707694;28;20217;-66
2023/03/14 07:23:20;;;;;;;1.55;0.80;;;12.10;97.20;;;;;;1707077;28;20446;-66
2023/03/14 07:24:12;;;;;;;2.17;1.00;;;12.10;97.20;;;;;;1707078;28;20294;-68
2023/03/14 07:25:04;;;;;;;2.65;0.80;;;12.10;97.20;;;;;;1706487;29;20498;-66
2023/03/14 07:25:55;;;;;;;1.88;0.70;;;12.20;97.20;;;;;;1706986;29;20766;-67
2023/03/14 07:26:46;;;;;;;2.53;0.95;;;12.20;97.20;;;;;;1707237;29;20209;-66
2023/03/14 07:27:38;;;;;;;2.07;0.80;;;12.30;97.20;;;;;;1707079;28;20249;-67
2023/03/14 07:28:29;;;;;;;1.70;0.70;;;12.30;97.20;;;;;;1707007;29;20213;-69
2023/03/14 07:29:20;;;;;;;2.10;0.70;;;12.30;97.20;;;;;;1707038;29;20194;-66
2023/03/14 07:30:12;;;;;;;1.90;0.75;;;12.40;97.20;;;;;;1707010;29;20207;-66
2023/03/14 07:31:04;;;;;;;1.85;0.80;;;12.50;97.20;;;;;;1705500;28;20225;-66
2023/03/14 07:31:55;;;;;;;1.52;0.63;;;12.50;97.20;;;;;;1707251;29;20217;-66
2023/03/14 07:32:47;;;;;;;1.10;0.60;;;12.60;97.20;;;;;;1706692;29;20213;-66
2023/03/14 07:33:39;;;;;;;2.10;0.80;;;12.70;97.20;;;;;;1709576;28;20601;-66
2023/03/14 07:34:31;;;;;;;1.83;0.70;;;12.80;97.20;;;;;;1714329;28;20341;-66
2023/03/14 07:35:21;;;;;;;1.10;0.60;;;12.90;97.20;;;;;;1714320;28;20579;-65
2023/03/14 07:36:13;;;;;;;1.30;0.70;;;12.90;97.20;;;;;;1712839;28;20540;-65
2023/03/14 07:37:04;;;;;;;1.35;0.60;;;13.00;97.20;;;;;;1714135;28;20210;-65
2023/03/14 07:37:56;;;;;;;1.00;0.63;;;13.10;97.20;;;;;;1713786;28;20778;-69
2023/03/14 07:38:47;;;;;;;1.45;0.70;;;13.20;97.20;;;;;;1713514;28;20233;-70
2023/03/14 07:39:39;;;;;;;1.10;0.60;;;13.30;97.20;;;;;;1713756;28;20667;-66
2023/03/14 07:40:29;;;;;;;0.80;0.70;;;13.30;97.20;;;;;;1713629;28;20441;-67
2023/03/14 07:41:22;;;;;;;2.57;1.00;;;13.30;97.20;;;;;;1713740;28;20220;-66
2023/03/14 07:42:13;;;;;;;2.35;0.85;;;13.30;97.20;;;;;;1713688;28;20213;-66
2023/03/14 07:43:05;;;;;;;1.70;0.80;;;13.30;97.20;;;;;;1713140;28;20234;-66
2023/03/14 07:43:56;;;;;;;1.55;0.82;;;13.20;97.20;;;;;;1713743;28;20253;-67
2023/03/14 07:44:47;;;;;;;3.27;0.87;;;13.20;97.20;;;;;;1713638;28;20202;-68
2023/03/14 07:45:38;;;;;;;1.58;0.60;;;13.10;97.20;;;;;;1713694;28;20320;-69
2023/03/14 07:46:30;;;;;;;2.27;0.70;;;13.00;97.20;;;;;;1713198;28;20202;-68
2023/03/14 07:47:20;;;;;;;1.10;0.68;;;12.90;97.20;;;;;;1710603;28;20796;-69
2023/03/14 07:48:12;;;;;;;1.80;0.70;;;12.90;97.20;;;;;;1707036;28;20793;-70
2023/03/14 07:49:04;;;;;;;1.15;0.70;;;12.90;97.20;;;;;;1711870;28;20233;-70
2023/03/14 07:49:56;;;;;;;1.77;0.70;;;12.90;97.20;;;;;;1710505;28;20614;-68
2023/03/14 07:50:48;;;;;;;2.30;0.77;;;13.00;97.20;;;;;;1706876;28;20230;-68
2023/03/14 07:51:40;;;;;;;2.33;1.00;;;13.00;97.20;;;;;;1711447;28;20285;-69
2023/03/14 07:52:31;;;;;;;3.90;0.93;;;13.00;97.20;;;;;;1713981;28;20201;-68
2023/03/14 07:53:24;;;;;;;1.10;0.70;;;12.90;97.20;;;;;;1713312;28;20206;-68
2023/03/14 07:54:15;;;;;;;1.10;0.70;;;12.90;97.20;;;;;;1708842;28;20470;-68
2023/03/14 07:55:07;;;;;;;3.53;1.13;;;13.00;97.20;;;;;;1707446;28;20212;-69
2023/03/14 07:55:58;;;;;;;1.40;0.70;;;13.00;97.20;;;;;;1707685;28;20606;-68
2023/03/14 07:56:49;;;;;;;1.73;0.80;;;13.00;97.20;;;;;;1707632;28;20245;-68
2023/03/14 07:57:40;;;;;;;2.97;1.00;;;13.10;97.20;;;;;;1707681;28;20316;-68
2023/03/14 07:58:32;;;;;;;1.10;0.70;;;13.20;97.20;;;;;;1707376;28;20214;-69
2023/03/14 07:59:23;;;;;;;2.28;0.82;;;13.30;97.20;;;;;;1709109;28;20221;-68
2023/03/14 08:00:15;;;;;;;0.90;0.53;;;13.40;97.20;;;;;;1714303;28;20201;-70
2023/03/14 08:01:06;;;;;;;2.30;0.70;;;13.50;97.20;;;;;;1714270;28;20214;-69
2023/03/14 08:01:58;;;;;;;1.88;0.60;;;13.70;97.20;;;;;;1707890;28;20233;-68
2023/03/14 08:02:49;;;;;;;2.67;0.70;;;13.70;97.20;;;;;;1705837;28;20206;-69
2023/03/14 08:03:40;;;;;;;1.33;0.77;;;13.80;97.20;;;;;;1708573;28;20253;-70
2023/03/14 08:04:33;;;;;;;2.42;0.70;;;13.80;97.20;;;;;;1707568;28;20230;-68
2023/03/14 08:05:24;;;;;;;1.63;0.90;;;13.80;97.20;;;;;;1707635;28;20321;-68
2023/03/14 08:06:15;;;;;;;0.82;0.50;;;13.80;97.20;;;;;;1707631;28;20226;-68
2023/03/14 08:07:07;;;;;;;1.57;0.70;;;13.80;97.20;;;;;;1707616;28;20657;-69
2023/03/14 08:07:58;;;;;;;2.60;0.88;;;13.80;97.20;;;;;;1707542;28;20202;-68
2023/03/14 08:08:49;;;;;;;2.03;0.87;;;13.80;97.20;;;;;;1707477;28;20203;-68
2023/03/14 08:09:40;;;;;;;1.40;0.70;;;13.90;97.20;;;;;;1710758;28;20198;-69
2023/03/14 08:10:32;;;;;;;1.57;0.70;;;13.90;97.20;;;;;;1714140;28;20229;-69
2023/03/14 08:11:23;;;;;;;1.23;0.50;;;14.00;97.20;;;;;;1713935;28;20444;-65
2023/03/14 08:12:15;;;;;;;1.43;0.70;;;14.00;97.20;;;;;;1714158;28;20201;-68
2023/03/14 08:13:06;;;;;;;1.77;0.70;;;14.00;97.20;;;;;;1712662;28;20264;-65
2023/03/14 08:13:58;;;;;;;1.47;0.60;;;14.00;97.20;;;;;;1712224;28;20664;-66
2023/03/14 08:14:48;;;;;;;1.45;0.80;;;13.90;97.20;;;;;;1714160;28;20213;-66
2023/03/14 08:15:40;;;;;;;1.10;0.70;;;14.00;97.20;;;;;;1714148;28;20688;-66
2023/03/14 08:16:31;;;;;;;1.48;0.60;;;14.00;97.20;;;;;;1714227;28;20209;-66
2023/03/14 08:17:23;;;;;;;1.77;0.70;;;14.00;97.20;;;;;;1713899;28;20201;-66
2023/03/14 08:18:13;;;;;;;1.23;0.73;;;14.00;97.20;;;;;;1707575;28;20241;-66
2023/03/14 08:19:05;;;;;;;2.63;0.73;;;14.00;97.20;;;;;;1707307;28;20676;-67
2023/03/14 08:19:57;;;;;;;2.92;1.15;;;14.00;97.20;;;;;;1707183;28;20222;-66
2023/03/14 08:20:49;;;;;;;1.80;0.60;;;14.00;97.20;;;;;;1707441;28;20284;-66
2023/03/14 08:21:39;;;;;;;1.23;0.60;;;14.00;97.20;;;;;;1707314;28;20198;-66
2023/03/14 08:22:31;;;;;;;1.53;0.80;;;14.00;97.20;;;;;;1707591;28;20205;-67
2023/03/14 08:23:22;;;;;;;1.65;0.70;;;13.90;97.20;;;;;;1706764;28;20241;-66
2023/03/14 08:24:13;;;;;;;1.80;0.70;;;13.90;97.20;;;;;;1707499;28;20691;-66
2023/03/14 08:25:05;;;;;;;0.90;0.68;;;13.90;97.20;;;;;;1707334;28;20968;-67
2023/03/14 08:25:57;;;;;;;1.55;0.77;;;13.90;97.20;;;;;;1707222;28;20218;-66
2023/03/14 08:26:48;;;;;;;2.45;0.90;;;13.90;97.20;;;;;;1707231;28;20198;-66
2023/03/14 08:27:40;;;;;;;1.57;0.80;;;14.00;97.20;;;;;;1707224;28;20234;-67
2023/03/14 08:28:33;;;;;;;2.03;0.80;;;14.00;97.20;;;;;;1707300;28;20345;-65
2023/03/14 08:29:24;;;;;;;2.72;0.82;;;14.00;97.20;;;;;;1707207;28;20206;-66
2023/03/14 08:30:17;;;;;;;1.95;0.80;;;14.10;97.20;;;;;;1707292;28;20630;-66
2023/03/14 08:31:09;;;;;;;1.27;0.60;;;14.10;97.20;;;;;;1707565;28;20653;-65
2023/03/14 08:31:59;;;;;;;1.38;0.70;;;14.20;97.20;;;;;;1707137;28;20226;-66
2023/03/14 08:32:51;;;;;;;2.03;0.80;;;14.40;97.20;;;;;;1707032;28;20209;-66
2023/03/14 08:33:42;;;;;;;2.55;0.70;;;14.60;97.20;;;;;;1707160;28;20222;-66
2023/03/14 08:34:34;;;;;;;2.97;0.90;;;14.90;97.20;;;;;;1707390;28;20206;-67
2023/03/14 08:35:27;;;;;;;1.15;0.75;;;15.10;97.20;;;;;;1707444;28;20206;-66
2023/03/14 08:36:19;;;;;;;1.38;0.60;;;15.30;97.20;;;;;;1707026;28;20209;-66
2023/03/14 08:37:09;;;;;;;0.98;0.60;;;15.40;97.20;;;;;;1707501;28;20206;-66
2023/03/14 08:38:02;;;;;;;1.80;0.70;;;15.50;97.20;;;;;;1707120;28;20207;-66
2023/03/14 08:38:52;;;;;;;2.08;0.80;;;15.60;97.20;;;;;;1707240;28;20245;-66
2023/03/14 08:39:44;;;;;;;1.63;0.87;;;15.70;97.20;;;;;;1707106;28;20656;-66
2023/03/14 08:40:35;;;;;;;1.25;0.80;;;15.90;97.20;;;;;;1707371;28;20740;-67
2023/03/14 08:41:26;;;;;;;1.63;0.60;;;16.00;97.20;;;;;;1707399;28;20680;-66
2023/03/14 08:42:17;;;;;;;2.25;0.63;;;16.10;97.20;;;;;;1707191;28;20620;-66
2023/03/14 08:43:09;;;;;;;1.40;0.60;;;16.20;97.20;;;;;;1706808;28;20230;-66
2023/03/14 08:44:00;;;;;;;1.10;0.80;;;16.30;97.20;;;;;;1707411;28;20449;-66
2023/03/14 08:44:52;;;;;;;1.30;0.70;;;16.50;97.20;;;;;;1706840;28;20673;-66
2023/03/14 08:45:43;;;;;;;1.65;0.93;;;16.60;97.20;;;;;;1707249;28;20264;-67
2023/03/14 08:46:35;;;;;;;1.47;0.70;;;16.60;97.20;;;;;;1707212;28;20198;-66
2023/03/14 08:47:26;;;;;;;1.60;0.65;;;16.60;97.20;;;;;;1707310;28;20687;-66
2023/03/14 08:48:19;;;;;;;1.10;0.50;;;16.60;97.20;;;;;;1707153;28;20586;-66
2023/03/14 08:49:09;;;;;;;1.23;0.70;;;16.60;97.20;;;;;;1707236;28;20523;-66
2023/03/14 08:50:01;;;;;;;1.07;0.50;;;16.60;97.20;;;;;;1706987;28;20206;-66
2023/03/14 08:50:53;;;;;;;0.80;0.50;;;16.60;97.20;;;;;;1707270;28;20250;-66
2023/03/14 08:51:45;;;;;;;1.63;0.63;;;16.40;97.20;;;;;;1707320;28;20210;-66
2023/03/14 08:52:37;;;;;;;1.13;0.60;;;16.30;97.20;;;;;;1706793;28;20215;-68
2023/03/14 08:53:29;;;;;;;1.20;0.70;;;16.10;97.20;;;;;;1707101;28;20198;-66
2023/03/14 08:54:19;;;;;;;0.95;0.60;;;16.00;97.20;;;;;;1707297;28;20209;-66
2023/03/14 08:55:12;;;;;;;1.07;0.50;;;15.80;97.20;;;;;;1707319;28;20194;-66
2023/03/14 08:56:03;;;;;;;1.17;0.50;;;15.70;97.20;;;;;;1707078;28;20195;-65
2023/03/14 08:56:55;;;;;;;1.58;0.60;;;15.60;97.20;;;;;;1707141;28;20218;-66
2023/03/14 08:57:46;;;;;;;0.80;0.60;;;15.50;97.20;;;;;;1707355;28;20237;-66
2023/03/14 08:58:38;;;;;;;2.13;0.60;;;15.40;97.20;;;;;;1706997;28;20202;-66
2023/03/14 08:59:29;;;;;;;3.55;0.80;;;15.20;97.20;;;;;;1707030;28;20207;-67
2023/03/14 09:00:21;;;;;;;1.20;0.60;;;15.10;97.20;;;;;;1707209;28;20213;-66
2023/03/14 09:01:12;;;;;;;1.20;0.63;;;15.00;97.20;;;;;;1707100;28;20187;-67
2023/03/14 09:02:03;;;;;;;1.33;0.60;;;15.00;97.20;;;;;;1707271;28;20221;-66
2023/03/14 09:02:55;;;;;;;1.00;0.90;;;14.90;97.20;;;;;;1706570;28;20237;-66
2023/03/14 09:03:46;;;;;;;1.98;0.70;;;14.90;97.20;;;;;;1706949;28;20237;-67
2023/03/14 09:04:38;;;;;;;1.42;0.50;;;14.90;97.20;;;;;;1706933;29;20210;-66
2023/03/14 09:05:33;;;;;;;1.10;0.65;;;14.80;97.20;;;;;;1707292;28;20206;-66
2023/03/14 09:06:25;;;;;;;1.00;0.60;;;14.70;97.20;;;;;;1707416;28;20207;-66
2023/03/14 09:07:16;;;;;;;0.95;0.50;;;14.70;97.20;;;;;;1707044;28;21037;-67
2023/03/14 09:08:07;;;;;;;1.50;0.50;;;14.60;97.20;;;;;;1707308;29;20202;-68
2023/03/14 09:08:59;;;;;;;1.00;0.43;;;14.60;97.20;;;;;;1706846;29;20209;-69
2023/03/14 09:09:50;;;;;;;0.90;0.60;;;14.60;97.20;;;;;;1709937;28;20719;-68
2023/03/14 09:10:41;;;;;;;0.97;0.53;;;14.70;97.20;;;;;;1708788;28;20604;-69
2023/03/14 09:11:33;;;;;;;1.25;0.70;;;14.80;97.20;;;;;;1707249;28;20202;-67
2023/03/14 09:12:25;;;;;;;1.00;0.50;;;14.90;97.20;;;;;;1706222;28;20213;-67
2023/03/14 09:13:16;;;;;;;0.90;0.60;;;14.90;97.20;;;;;;1706620;28;20620;-67
2023/03/14 09:14:07;;;;;;;1.63;0.50;;;15.00;97.20;;;;;;1709697;28;20568;-66
2023/03/14 09:14:58;;;;;;;2.17;0.60;;;15.00;97.20;;;;;;1713440;28;20202;-66
2023/03/14 09:15:52;;;;;;;3.33;0.90;;;14.90;97.20;;;;;;1713977;28;20206;-66
2023/03/14 09:16:42;;;;;;;0.70;0.50;;;14.90;97.20;;;;;;1713841;28;20202;-66
2023/03/14 09:17:34;;;;;;;0.90;0.60;;;15.00;97.20;;;;;;1713653;28;20196;-66
2023/03/14 09:18:25;;;;;;;1.90;0.70;;;15.00;97.20;;;;;;1713810;28;20667;-66
2023/03/14 09:19:16;;;;;;;1.00;0.60;;;15.10;97.20;;;;;;1713452;28;20718;-66
2023/03/14 09:20:08;;;;;;;2.10;0.50;;;15.10;97.20;;;;;;1713872;28;20212;-66
2023/03/14 09:21:00;;;;;;;1.55;0.73;;;15.20;97.20;;;;;;1713267;28;20218;-66
2023/03/14 09:21:52;;;;;;;1.10;0.50;;;15.20;97.20;;;;;;1714601;28;20210;-66
2023/03/14 09:22:44;;;;;;;1.33;0.50;;;15.20;97.20;;;;;;1714310;28;20212;-66
2023/03/14 09:23:35;;;;;;;0.70;0.40;;;15.20;97.20;;;;;;1715304;28;20213;-68
2023/03/14 09:24:26;;;;;;;1.67;0.60;;;15.20;97.20;;;;;;1714938;28;20208;-66
2023/03/14 09:25:17;;;;;;;1.17;0.50;;;15.20;97.20;;;;;;1715204;28;20205;-67
2023/03/14 09:26:09;;;;;;;1.73;0.60;;;15.10;97.20;;;;;;1715184;28;20228;-65
2023/03/14 09:27:00;;;;;;;1.05;0.50;;;15.10;97.20;;;;;;1708769;28;20457;-66
2023/03/14 09:27:51;;;;;;;1.07;0.50;;;15.10;97.20;;;;;;1708658;28;20202;-67
2023/03/14 09:28:42;;;;;;;1.08;0.57;;;15.00;97.20;;;;;;1708346;28;20564;-66
2023/03/14 09:29:34;;;;;;;1.70;0.50;;;14.90;97.20;;;;;;1708556;28;20204;-66
2023/03/14 09:30:24;;;;;;;0.80;0.50;;;14.80;97.20;;;;;;1709776;28;20232;-68
2023/03/14 09:31:16;;;;;;;1.27;0.60;;;14.70;97.20;;;;;;1715237;28;20204;-65
2023/03/14 09:32:07;;;;;;;1.40;0.60;;;14.60;97.20;;;;;;1715226;28;20588;-67
2023/03/14 09:32:59;;;;;;;1.00;0.60;;;14.50;97.20;;;;;;1708808;28;20571;-66
2023/03/14 09:33:49;;;;;;;1.83;0.57;;;14.50;97.20;;;;;;1708554;28;20214;-66
2023/03/14 09:34:41;;;;;;;1.53;0.70;;;14.40;97.20;;;;;;1708406;28;20194;-67
2023/03/14 09:35:33;;;;;;;0.90;0.60;;;14.30;97.20;;;;;;1708644;28;20579;-66
2023/03/14 09:36:25;;;;;;;1.92;0.82;;;14.20;97.20;;;;;;1708477;28;20253;-66
2023/03/14 09:37:17;;;;;;;1.98;0.60;;;14.20;97.20;;;;;;1708528;28;20584;-66
2023/03/14 09:38:09;;;;;;;2.17;0.52;;;14.10;97.20;;;;;;1708629;28;20664;-66
2023/03/14 09:39:00;;;;;;;0.90;0.52;;;14.00;97.20;;;;;;1714004;28;20205;-66
2023/03/14 09:39:51;;;;;;;1.10;0.60;;;14.00;97.20;;;;;;1715289;28;20202;-66
2023/03/14 09:40:42;;;;;;;0.80;0.40;;;13.90;97.20;;;;;;1710980;28;20246;-66
2023/03/14 09:41:36;;;;;;;1.43;0.70;;;13.80;97.20;;;;;;1708613;28;20206;-68
2023/03/14 09:42:27;;;;;;;0.95;0.55;;;13.80;97.20;;;;;;1708571;28;20202;-66
2023/03/14 09:43:20;;;;;;;0.70;0.60;;;13.70;97.20;;;;;;1707989;28;20199;-66
2023/03/14 09:44:15;;;;;;;1.08;0.50;;;13.70;97.20;;;;;;1709711;28;20442;-67
2023/03/14 09:45:12;;;;;;;0.90;0.40;;;13.70;97.20;;;;;;1714957;28;20202;-66
2023/03/14 09:46:04;;;;;;;2.20;0.60;;;13.60;97.20;;;;;;1708293;28;20249;-68
2023/03/14 09:47:01;;;;;;;2.45;0.60;;;13.60;97.20;;;;;;1708501;28;20214;-69
2023/03/14 09:47:56;;;;;;;1.45;0.60;;;13.60;97.20;;;;;;1708543;28;20203;-68
2023/03/14 09:48:46;;;;;;;1.35;0.50;;;13.60;97.20;;;;;;1708263;28;20230;-67
2023/03/14 09:49:40;;;;;;;0.70;0.40;;;13.60;97.20;;;;;;1709502;28;20285;-69
2023/03/14 09:50:38;;;;;;;1.08;0.60;;;13.50;97.20;;;;;;1714329;28;20288;-69
2023/03/14 09:51:31;;;;;;;0.90;0.47;;;13.50;97.20;;;;;;1715082;28;20241;-68
2023/03/14 09:52:28;;;;;;;1.00;0.50;;;13.50;97.20;;;;;;1715033;28;20209;-68
2023/03/14 09:53:25;;;;;;;1.42;0.50;;;13.50;97.20;;;;;;1714576;28;20290;-68
2023/03/14 09:54:28;;;;;;;0.80;0.60;;;13.50;97.20;;;;;;1714833;28;20602;-68
2023/03/14 09:55:22;;;;;;;0.70;0.50;;;13.50;97.20;;;;;;1714968;28;20217;-70
2023/03/14 09:56:17;;;;;;;0.70;0.50;;;13.50;97.20;;;;;;1715032;28;20213;-69
2023/03/14 09:57:14;;;;;;;4.15;0.75;;;13.40;97.20;;;;;;1708501;28;20238;-68
2023/03/14 09:58:12;;;;;;;0.80;0.60;;;13.50;97.20;;;;;;1708390;28;20217;-69
2023/03/14 09:59:05;;;;;;;0.93;0.50;;;13.50;97.20;;;;;;1708207;28;20666;-68
2023/03/14 10:00:04;;;;;;;1.00;0.50;;;13.50;97.20;;;;;;1708326;28;20199;-68
2023/03/14 10:00:57;;;;;;;1.60;0.70;;;13.50;97.20;;;;;;1713275;28;20642;-68
2023/03/14 10:01:48;;;;;;;1.13;0.60;;;13.60;97.20;;;;;;1715116;28;20614;-68
2023/03/14 10:02:41;;;;;;;1.65;0.60;;;13.60;97.20;;;;;;1714496;28;20209;-68
2023/03/14 10:03:34;;;;;;;0.93;0.50;;;13.60;97.20;;;;;;1715141;28;20278;-69
2023/03/14 10:04:25;;;;;;;0.80;0.50;;;13.60;97.20;;;;;;1709487;28;20206;-68
2023/03/14 10:05:19;;;;;;;3.58;0.80;;;13.60;97.20;;;;;;1708249;28;20282;-69
2023/03/14 10:06:12;;;;;;;1.23;0.50;;;13.70;97.20;;;;;;1711256;28;20679;-69
2023/03/14 10:07:03;;;;;;;0.80;0.50;;;13.90;97.20;;;;;;1714576;28;20198;-69
2023/03/14 10:07:56;;;;;;;0.70;0.47;;;14.70;97.20;;;;;;1714965;28;20214;-69
2023/03/14 10:08:47;;;;;;;1.23;0.50;;;15.00;97.20;;;;;;1714561;28;20209;-69
2023/03/14 10:09:38;;;;;;;1.10;0.50;;;15.60;97.20;;;;;;1715001;28;20206;-66
2023/03/14 10:10:30;;;;;;;1.40;0.40;;;16.70;97.20;;;;;;1712803;28;20201;-66
2023/03/14 10:11:21;;;;;;;4.90;0.70;;;17.30;97.20;;;;;;1708282;28;20226;-66
2023/03/14 10:12:12;;;;;;;0.70;0.50;;;17.90;97.20;;;;;;1708393;28;20233;-66
2023/03/14 10:13:16;;;;;;;1.05;0.50;;;18.20;97.20;;;;;;1713374;28;20202;-66
2023/03/14 10:14:09;;;;;;;1.13;0.50;;;18.40;97.20;;;;;;1714967;28;20719;-66
2023/03/14 10:15:04;;;;;;;1.60;0.60;;;19.50;97.20;;;;;;1714496;28;20213;-67
2023/03/14 10:16:00;;;;;;;1.30;0.50;;;20.80;97.20;;;;;;1714923;28;20230;-66
2023/03/14 10:16:50;;;;;;;1.10;0.75;;;21.20;97.20;;;;;;1715033;28;20684;-66
2023/03/14 10:17:47;;;;;;;0.77;0.50;;;22.30;97.20;;;;;;1714943;28;20724;-66
2023/03/14 10:18:38;;;;;;;1.05;0.65;;;23.50;97.20;;;;;;1714428;28;20199;-66
2023/03/14 10:19:29;;;;;;;0.90;0.50;;;24.80;97.20;;;;;;1715032;28;20202;-67
2023/03/14 10:20:32;;;;;;;1.42;0.68;;;26.20;97.20;;;;;;1713588;28;20212;-70
2023/03/14 10:21:29;;;;;;;0.90;0.50;;;27.90;97.20;;;;;;1708262;28;20202;-67
2023/03/14 10:22:22;;;;;;;0.70;0.50;;;28.90;97.20;;;;;;1709312;28;20210;-67
2023/03/14 10:23:29;;;;;;;0.90;0.50;;;29.10;97.20;;;;;;1714433;28;20210;-67
2023/03/14 10:24:22;;;;;;;0.93;0.50;;;28.80;97.20;;;;;;1714572;28;20864;-70
2023/03/14 10:25:27;;;;;;;0.90;0.43;;;28.00;97.20;;;;;;1714779;28;20220;-69
2023/03/14 10:26:24;;;;;;;1.00;0.55;;;27.00;97.20;;;;;;1713455;28;20812;-70
2023/03/14 10:27:19;;;;;;;1.88;0.98;;;26.20;97.20;;;;;;1708299;28;20207;-69
2023/03/14 10:28:24;;;;;;;0.70;0.40;;;25.30;97.20;;;;;;1708154;28;20203;-66
2023/03/14 10:29:16;;;;;;;0.70;0.40;;;24.40;97.20;;;;;;1707918;28;20233;-66
2023/03/14 10:30:27;;;;;;;2.00;0.63;;;23.50;97.20;;;;;;1708193;28;20216;-70
2023/03/14 10:31:18;;;;;;;0.90;0.40;;;22.60;97.20;;;;;;1708044;28;20211;-68
2023/03/14 10:32:20;;;;;;;1.00;0.57;;;21.60;97.20;;;;;;1708213;28;20257;-68